Time;durP1;ratioP1;P1;durP2;ratioP2;P2;SDS_P1;SDS_P2;PMS_P1;PMS_P2;Temp;Humidity;BMP_temperature;BMP_pressure;BME280_temperature;BME280_humidity;BME280_pressure;Samples;Min_cycle;Max_cycle;Signal;HPM_P1;HPM_P2
2021/04/15 00:01:44;;;;;;;6.40;3.15;;;;;;;2.29;73.40;100903.65;2065697;83;21154;-69
2021/04/15 00:04:47;;;;;;;4.90;3.42;;;;;;;2.29;73.57;100905.80;2062769;84;21169;-68
2021/04/15 00:07:49;;;;;;;5.40;3.33;;;;;;;2.28;74.05;100900.19;2072796;83;21145;-68
2021/04/15 00:10:55;;;;;;;6.72;3.47;;;;;;;2.23;73.65;100892.61;2080617;83;21101;-68
2021/04/15 00:13:59;;;;;;;5.97;3.52;;;;;;;2.24;73.69;100885.59;2089501;83;21176;-69
2021/04/15 00:17:00;;;;;;;5.45;3.60;;;;;;;2.26;73.76;100885.51;2091688;82;21189;-69
2021/04/15 00:20:04;;;;;;;4.95;3.35;;;;;;;2.26;73.84;100884.20;2068997;83;21640;-69
2021/04/15 00:23:06;;;;;;;5.65;3.40;;;;;;;2.24;74.02;100877.26;2093407;83;21561;-70
2021/04/15 00:26:09;;;;;;;7.05;3.70;;;;;;;2.22;74.05;100879.16;2087997;83;21182;-73
2021/04/15 00:29:10;;;;;;;4.72;3.85;;;;;;;2.23;74.43;100873.44;2067476;84;21126;-69
2021/04/15 00:32:12;;;;;;;5.97;3.95;;;;;;;2.18;74.47;100875.02;2128956;81;21608;-69
2021/04/15 00:35:15;;;;;;;5.28;3.95;;;;;;;2.15;74.46;100869.98;2122183;82;21265;-68
2021/04/15 00:38:21;;;;;;;7.45;4.20;;;;;;;2.16;74.73;100872.13;2132994;81;21148;-70
2021/04/15 00:41:24;;;;;;;6.92;4.05;;;;;;;2.14;74.60;100868.75;2128728;81;21616;-68
2021/04/15 00:44:25;;;;;;;4.65;3.37;;;;;;;2.11;74.91;100865.02;2136179;81;21562;-69
2021/04/15 00:47:29;;;;;;;7.17;3.55;;;;;;;2.06;75.06;100862.70;2107860;81;21648;-69
2021/04/15 00:50:42;;;;;;;5.80;3.30;;;;;;;2.03;75.04;100870.73;2133963;81;21161;-69
2021/04/15 00:53:55;;;;;;;6.28;4.08;;;;;;;2.02;75.15;100861.19;2136127;81;21272;-68
2021/04/15 00:56:57;;;;;;;8.23;4.67;;;;;;;2.01;75.27;100866.89;2128202;81;21624;-68
2021/04/15 00:59:59;;;;;;;8.35;4.50;;;;;;;2.04;75.35;100859.80;2128250;81;21209;-70
2021/04/15 01:03:02;;;;;;;6.22;4.28;;;;;;;2.02;75.61;100858.56;2131123;81;21192;-69
2021/04/15 01:06:07;;;;;;;7.33;4.12;;;;;;;2.00;75.37;100859.15;2136314;81;21570;-69
2021/04/15 01:09:08;;;;;;;6.03;4.20;;;;;;;1.97;75.70;100851.02;2140780;81;21200;-68
2021/04/15 01:12:53;;;;;;;5.33;3.95;;;;;;;1.96;75.76;100852.40;2138687;81;21153;-68
2021/04/15 01:16:20;;;;;;;6.00;3.65;;;;;;;1.97;75.87;100847.53;2131833;81;21133;-69
2021/04/15 01:20:01;;;;;;;9.08;4.08;;;;;;;1.95;75.86;100848.95;2135278;81;21638;-72
2021/04/15 01:23:53;;;;;;;13.03;4.12;;;;;;;1.97;75.75;100847.09;2133638;81;21120;-72
2021/04/15 01:27:10;;;;;;;6.62;4.53;;;;;;;1.98;75.73;100845.30;2139566;81;21097;-71
2021/04/15 01:30:32;;;;;;;6.70;4.55;;;;;;;1.96;75.94;100838.84;2136114;81;21175;-70
2021/04/15 01:33:42;;;;;;;4.35;3.47;;;;;;;1.97;75.79;100839.23;2130603;81;21191;-74
2021/04/15 01:37:10;;;;;;;7.25;4.80;;;;;;;1.97;75.77;100841.85;2133361;81;21129;-70
2021/04/15 01:40:54;;;;;;;8.58;4.12;;;;;;;1.95;75.73;100841.09;2138850;81;21168;-69
2021/04/15 01:44:28;;;;;;;5.65;3.62;;;;;;;1.96;75.93;100841.93;2131678;81;21148;-70
2021/04/15 01:47:40;;;;;;;6.00;3.90;;;;;;;1.96;75.88;100836.70;2128179;81;21147;-72
2021/04/15 01:50:47;;;;;;;7.03;4.08;;;;;;;1.99;75.98;100837.81;2135324;81;21229;-70
2021/04/15 01:54:02;;;;;;;6.42;4.28;;;;;;;1.97;75.86;100841.85;2138062;81;21160;-72
2021/04/15 01:57:24;;;;;;;7.60;4.53;;;;;;;1.97;75.98;100832.69;2140662;81;21171;-70
2021/04/15 02:00:30;;;;;;;9.28;4.90;;;;;;;1.98;76.20;100834.84;2127207;81;21204;-69
2021/04/15 02:03:37;;;;;;;11.93;4.35;;;;;;;1.96;76.00;100836.70;2113811;82;21149;-70
2021/04/15 02:06:43;;;;;;;7.10;4.05;;;;;;;1.94;76.16;100834.19;2074937;84;21587;-71
2021/04/15 02:09:47;;;;;;;4.85;4.03;;;;;;;1.95;76.14;100828.48;2091428;83;21154;-70
2021/04/15 02:12:53;;;;;;;8.25;4.65;;;;;;;1.95;76.15;100833.24;2072434;83;21127;-70
2021/04/15 02:16:03;;;;;;;8.05;4.58;;;;;;;1.97;76.16;100835.75;2075777;84;21150;-70
2021/04/15 02:19:18;;;;;;;5.92;4.08;;;;;;;2.00;76.20;100829.88;2081089;83;21192;-70
2021/04/15 02:22:44;;;;;;;6.42;4.20;;;;;;;2.00;76.09;100832.50;2085696;83;21205;-72
2021/04/15 02:25:53;;;;;;;5.90;4.62;;;;;;;2.00;76.30;100837.73;2092807;83;21146;-70
2021/04/15 02:29:06;;;;;;;8.70;5.00;;;;;;;2.00;76.37;100833.81;2041278;85;21169;-74
2021/04/15 02:32:43;;;;;;;12.03;5.92;;;;;;;1.97;76.56;100827.89;2046145;85;21114;-70
2021/04/15 02:35:55;;;;;;;8.90;4.85;;;;;;;1.96;76.43;100835.39;2072437;84;21189;-72
2021/04/15 02:39:10;;;;;;;7.53;4.35;;;;;;;1.96;76.59;100833.61;2063334;84;21169;-72
2021/04/15 02:42:17;;;;;;;6.90;4.00;;;;;;;1.96;76.54;100835.39;2061088;84;21256;-71
2021/04/15 02:45:36;;;;;;;8.83;5.45;;;;;;;1.97;76.50;100831.83;2064701;84;22312;-71
2021/04/15 02:48:38;;;;;;;8.03;5.22;;;;;;;1.97;76.50;100833.13;2065364;84;21213;-69
2021/04/15 02:52:10;;;;;;;9.08;5.87;;;;;;;2.00;76.74;100827.73;2063340;84;21197;-71
2021/04/15 02:55:21;;;;;;;10.40;4.85;;;;;;;1.99;76.73;100829.48;2085970;83;21138;-70
2021/04/15 02:58:33;;;;;;;6.95;4.85;;;;;;;1.98;76.69;100827.81;2062445;83;21092;-71
2021/04/15 03:01:39;;;;;;;7.30;4.30;;;;;;;1.97;76.88;100827.45;2054521;85;21169;-71
2021/04/15 03:04:46;;;;;;;7.85;4.60;;;;;;;1.95;76.82;100829.79;2063323;85;21177;-71
2021/04/15 03:07:49;;;;;;;8.18;4.70;;;;;;;1.97;77.01;100825.28;2058811;85;22270;-69
2021/04/15 03:11:02;;;;;;;8.68;4.67;;;;;;;1.98;76.83;100823.89;2064162;84;21375;-70
2021/04/15 03:14:11;;;;;;;9.55;4.50;;;;;;;1.98;77.24;100821.75;2057330;84;21169;-70
2021/04/15 03:17:14;;;;;;;7.75;4.50;;;;;;;1.97;77.10;100820.91;2062901;84;21168;-72
2021/04/15 03:20:21;;;;;;;9.63;4.58;;;;;;;1.98;76.86;100822.58;2061969;84;21090;-70
2021/04/15 03:23:51;;;;;;;11.10;4.75;;;;;;;2.00;77.21;100818.10;2060187;84;21557;-70
2021/04/15 03:27:00;;;;;;;11.63;4.87;;;;;;;2.00;77.04;100818.58;2045120;84;21218;-70
2021/04/15 03:30:15;;;;;;;8.10;4.72;;;;;;;1.99;76.75;100820.80;2066776;84;21139;-71
2021/04/15 03:33:27;;;;;;;8.73;4.40;;;;;;;1.97;76.81;100823.53;2110797;82;21076;-71
2021/04/15 03:36:38;;;;;;;10.65;4.60;;;;;;;1.93;76.89;100822.02;2111522;82;21645;-71
2021/04/15 03:39:41;;;;;;;10.08;4.70;;;;;;;1.90;76.84;100832.67;2111621;82;21194;-72
2021/04/15 03:42:54;;;;;;;7.72;4.37;;;;;;;1.88;76.97;100835.02;2114986;82;21153;-70
2021/04/15 03:46:07;;;;;;;7.53;4.22;;;;;;;1.89;76.83;100833.63;2111205;82;21512;-70
2021/04/15 03:49:16;;;;;;;9.40;4.30;;;;;;;1.89;76.95;100830.17;2109246;82;21648;-72
2021/04/15 03:52:26;;;;;;;5.33;3.90;;;;;;;1.85;76.91;100828.19;2107640;81;21145;-70
2021/04/15 03:55:43;;;;;;;10.48;4.53;;;;;;;1.82;76.79;100824.92;2111158;82;21252;-75
2021/04/15 03:58:50;;;;;;;5.92;3.37;;;;;;;1.76;76.82;100828.28;2117285;82;21140;-70
2021/04/15 04:01:55;;;;;;;7.15;4.03;;;;;;;1.69;76.93;100828.73;2114830;82;21548;-71
2021/04/15 04:05:04;;;;;;;9.10;4.40;;;;;;;1.64;76.95;100826.89;2111774;82;21141;-71
2021/04/15 04:08:11;;;;;;;6.22;3.40;;;;;;;1.59;77.20;100825.00;2114568;81;21077;-70
2021/04/15 04:11:20;;;;;;;8.05;4.15;;;;;;;1.55;77.31;100828.28;2107719;82;21140;-71
2021/04/15 04:14:35;;;;;;;5.22;3.70;;;;;;;1.53;77.20;100830.14;2106239;82;21572;-72
2021/04/15 04:17:45;;;;;;;10.08;4.25;;;;;;;1.52;76.96;100827.13;2116285;82;21155;-70
2021/04/15 04:20:46;;;;;;;5.12;3.98;;;;;;;1.47;77.29;100823.97;2109171;82;21188;-69
2021/04/15 04:23:56;;;;;;;8.50;4.28;;;;;;;1.48;77.61;100825.17;2105433;81;21172;-74
2021/04/15 04:27:24;;;;;;;7.77;3.60;;;;;;;1.47;77.90;100820.88;2122466;82;21169;-70
2021/04/15 04:30:42;;;;;;;9.43;3.60;;;;;;;1.46;77.59;100828.80;2108458;81;21101;-70
2021/04/15 04:33:48;;;;;;;6.22;3.90;;;;;;;1.45;77.50;100829.28;2128492;81;21080;-70
2021/04/15 04:36:52;;;;;;;8.43;4.03;;;;;;;1.44;77.94;100823.69;2132154;81;21211;-70
2021/04/15 04:39:57;;;;;;;10.63;4.83;;;;;;;1.46;77.93;100828.80;2131672;81;21649;-70
2021/04/15 04:43:16;;;;;;;10.70;4.87;;;;;;;1.44;77.82;100832.84;2113672;82;21198;-69
2021/04/15 04:46:35;;;;;;;8.33;4.35;;;;;;;1.45;77.79;100824.52;2089374;82;21582;-70
2021/04/15 04:49:41;;;;;;;5.85;3.40;;;;;;;1.45;78.09;100825.83;2122059;81;21130;-70
2021/04/15 04:52:43;;;;;;;8.00;4.55;;;;;;;1.42;78.26;100827.32;2126334;82;21636;-70
2021/04/15 04:56:10;;;;;;;8.63;3.92;;;;;;;1.41;78.06;100825.17;2104969;82;21176;-71
2021/04/15 04:59:20;;;;;;;9.40;4.53;;;;;;;1.44;78.10;100829.38;2032534;82;21300;-70
2021/04/15 05:02:21;;;;;;;5.97;3.47;;;;;;;1.46;78.09;100823.58;2134249;82;21171;-75
2021/04/15 05:05:29;;;;;;;9.48;4.15;;;;;;;1.48;78.24;100829.56;2127534;81;21111;-69
2021/04/15 05:08:56;;;;;;;9.20;4.00;;;;;;;1.49;78.21;100822.08;2128936;82;21082;-69
2021/04/15 05:11:58;;;;;;;11.57;4.78;;;;;;;1.47;78.17;100823.97;2129921;82;21094;-70
2021/04/15 05:15:01;;;;;;;5.72;4.10;;;;;;;1.47;78.29;100822.66;2131874;82;21113;-71
2021/04/15 05:18:04;;;;;;;7.58;4.15;;;;;;;1.47;78.23;100822.19;2132713;82;21139;-69
2021/04/15 05:21:25;;;;;;;9.65;3.98;;;;;;;1.44;78.69;100815.84;2090680;83;21117;-70
2021/04/15 05:24:40;;;;;;;8.28;4.55;;;;;;;1.40;78.51;100818.71;2102871;82;21150;-70
2021/04/15 05:27:44;;;;;;;8.58;3.75;;;;;;;1.39;78.61;100817.05;2072532;82;21183;-70
2021/04/15 05:30:50;;;;;;;9.38;4.10;;;;;;;1.36;78.93;100814.14;2110897;82;21159;-69
2021/04/15 05:33:53;;;;;;;11.83;3.72;;;;;;;1.37;78.77;100808.44;2109370;82;21109;-72
2021/04/15 05:36:59;;;;;;;7.62;3.98;;;;;;;1.36;78.98;100811.52;2126300;82;21091;-70
2021/04/15 05:40:03;;;;;;;7.37;4.40;;;;;;;1.38;78.88;100819.27;2114995;82;21165;-69
2021/04/15 05:43:25;;;;;;;8.10;4.50;;;;;;;1.39;79.21;100816.57;2117539;82;21604;-70
2021/04/15 05:46:32;;;;;;;8.45;3.98;;;;;;;1.39;79.38;100807.41;2100987;82;21127;-70
2021/04/15 05:49:47;;;;;;;7.50;3.50;;;;;;;1.38;79.69;100807.05;2095913;82;21125;-70
2021/04/15 05:52:59;;;;;;;7.35;3.77;;;;;;;1.38;79.33;100812.72;2078619;83;21114;-69
2021/04/15 05:56:17;;;;;;;6.53;3.65;;;;;;;1.40;79.47;100813.48;2107298;82;21123;-74
2021/04/15 05:59:30;;;;;;;5.28;3.90;;;;;;;1.39;79.31;100807.89;2112486;82;21157;-71
2021/04/15 06:02:46;;;;;;;6.35;4.08;;;;;;;1.34;79.58;100805.06;2115890;82;22303;-73
2021/04/15 06:06:06;;;;;;;5.45;4.22;;;;;;;1.32;79.80;100804.34;2123536;82;21117;-72
2021/04/15 06:09:08;;;;;;;13.10;5.62;;;;;;;1.32;79.74;100800.85;2125956;82;21151;-73
2021/04/15 06:12:18;;;;;;;6.95;4.87;;;;;;;1.33;79.82;100799.94;2122800;80;21159;-70
2021/04/15 06:15:48;;;;;;;6.70;4.45;;;;;;;1.36;79.88;100790.61;2126056;82;21190;-69
2021/04/15 06:19:01;;;;;;;7.42;4.12;;;;;;;1.38;79.91;100798.34;2099487;82;21144;-70
2021/04/15 06:22:17;;;;;;;6.17;4.37;;;;;;;1.40;80.03;100795.17;2124400;82;21337;-70
2021/04/15 06:25:27;;;;;;;7.20;4.72;;;;;;;1.43;80.38;100787.14;2121064;82;21624;-69
2021/04/15 06:28:35;;;;;;;6.37;4.33;;;;;;;1.48;80.28;100783.80;2124349;82;21204;-71
2021/04/15 06:31:48;;;;;;;6.50;4.85;;;;;;;1.48;80.05;100781.18;2130507;82;21111;-70
2021/04/15 06:34:50;;;;;;;5.60;4.75;;;;;;;1.45;80.37;100786.59;2128767;82;21148;-69
2021/04/15 06:38:06;;;;;;;9.48;5.12;;;;;;;1.44;80.26;100772.69;2109811;82;21567;-70
2021/04/15 06:41:28;;;;;;;6.15;4.55;;;;;;;1.42;80.34;100782.39;2112783;82;21108;-69
2021/04/15 06:44:48;;;;;;;5.87;4.15;;;;;;;1.45;80.37;100765.67;2121247;82;21168;-69
2021/04/15 06:48:26;;;;;;;4.90;4.17;;;;;;;1.43;80.19;100776.21;2127216;82;21176;-69
2021/04/15 06:52:07;;;;;;;6.75;4.47;;;;;;;1.46;80.44;100775.19;2117135;82;21185;-69
2021/04/15 06:55:40;;;;;;;9.63;4.55;;;;;;;1.44;80.41;100774.47;2103834;82;21208;-71
2021/04/15 06:59:24;;;;;;;5.87;4.37;;;;;;;1.46;80.33;100760.81;2127003;82;21179;-69
2021/04/15 07:02:45;;;;;;;7.22;4.42;;;;;;;1.48;80.74;100765.02;2090891;82;21202;-71
2021/04/15 07:06:08;;;;;;;6.60;4.35;;;;;;;1.46;80.87;100764.26;2091226;83;21137;-68
2021/04/15 07:09:34;;;;;;;5.97;3.58;;;;;;;1.43;80.49;100763.61;2128887;80;21665;-68
2021/04/15 07:12:59;;;;;;;5.42;3.55;;;;;;;1.38;80.68;100763.91;2076075;84;21178;-68
2021/04/15 07:16:24;;;;;;;4.78;3.65;;;;;;;1.34;80.59;100763.23;2137559;82;21173;-69
2021/04/15 07:20:08;;;;;;;5.17;3.62;;;;;;;1.38;80.68;100769.58;2125982;82;21203;-69
2021/04/15 07:23:56;;;;;;;4.08;3.67;;;;;;;1.38;80.85;100757.37;2130539;82;21216;-68
2021/04/15 07:27:32;;;;;;;6.10;3.98;;;;;;;1.34;80.83;100754.55;2124450;82;21605;-68
2021/04/15 07:31:14;;;;;;;4.70;3.12;;;;;;;1.35;80.74;100761.45;2121644;82;22239;-69
2021/04/15 07:34:55;;;;;;;4.37;3.40;;;;;;;1.42;80.94;100758.85;2113175;82;21595;-69
2021/04/15 07:38:34;;;;;;;4.78;3.62;;;;;;;1.44;81.33;100758.77;2114376;82;21188;-69
2021/04/15 07:42:06;;;;;;;6.10;4.55;;;;;;;1.46;80.97;100757.72;2127779;82;21643;-73
2021/04/15 07:45:13;;;;;;;;;;;;;;;1.45;80.83;100761.75;2126294;82;21208;-69
2021/04/15 07:48:47;;;;;;;4.58;3.70;;;;;;;1.47;81.08;100752.05;2126697;82;20750;-68
2021/04/15 07:52:08;;;;;;;4.35;3.35;;;;;;;1.51;81.36;100750.91;2139587;81;21175;-71
2021/04/15 07:55:40;;;;;;;4.50;3.58;;;;;;;1.52;81.01;100756.50;2134502;81;21171;-70
2021/04/15 07:58:56;;;;;;;4.97;3.17;;;;;;;1.52;81.43;100753.89;2074089;83;21156;-69
2021/04/15 08:02:35;;;;;;;3.95;3.45;;;;;;;1.49;81.29;100744.92;2064562;83;21200;-70
2021/04/15 08:05:51;;;;;;;4.65;3.40;;;;;;;1.45;81.35;100753.44;2080587;84;21508;-70
2021/04/15 08:09:07;;;;;;;5.25;3.72;;;;;;;1.47;81.41;100748.13;2007877;85;21130;-71
2021/04/15 08:12:35;;;;;;;4.37;3.30;;;;;;;1.53;81.37;100756.91;2064209;84;21198;-69
2021/04/15 08:16:21;;;;;;;3.62;3.25;;;;;;;1.60;81.51;100747.73;2062126;84;21594;-70
2021/04/15 08:19:48;;;;;;;4.72;3.37;;;;;;;1.62;81.17;100747.17;2061625;84;21157;-70
2021/04/15 08:23:46;;;;;;;5.28;3.47;;;;;;;1.61;81.16;100752.05;2083247;84;21208;-68
2021/04/15 08:27:27;;;;;;;4.95;3.47;;;;;;;1.67;81.36;100752.97;2066183;84;21229;-69
2021/04/15 08:30:46;;;;;;;8.83;3.58;;;;;;;1.67;81.17;100746.91;2034873;85;21233;-67
2021/04/15 08:34:11;;;;;;;4.40;3.37;;;;;;;1.61;81.30;100747.28;2032314;85;21164;-71
2021/04/15 08:37:47;;;;;;;6.55;3.80;;;;;;;1.57;81.68;100747.92;2033654;85;21262;-68
2021/04/15 08:41:23;;;;;;;5.17;3.77;;;;;;;1.60;81.49;100738.58;2054218;85;21621;-71
2021/04/15 08:44:33;;;;;;;6.12;3.58;;;;;;;1.56;81.24;100746.25;2055880;85;21571;-69
2021/04/15 08:47:53;;;;;;;5.37;3.50;;;;;;;1.59;81.60;100747.84;2079702;84;21687;-68
2021/04/15 08:51:38;;;;;;;5.22;3.30;;;;;;;1.62;81.60;100735.41;2066962;84;21607;-69
2021/04/15 08:55:00;;;;;;;5.12;3.27;;;;;;;1.62;81.26;100735.41;2064649;83;21193;-68
2021/04/15 08:58:47;;;;;;;4.45;3.08;;;;;;;1.68;81.49;100724.55;2045096;84;22615;-69
2021/04/15 09:02:12;;;;;;;4.20;3.08;;;;;;;1.66;81.19;100742.14;2084534;83;21134;-69
2021/04/15 09:05:19;;;;;;;3.70;2.83;;;;;;;1.67;81.55;100734.66;2050757;83;21097;-70
2021/04/15 09:08:36;;;;;;;5.67;3.62;;;;;;;1.67;81.21;100736.44;2081636;83;21596;-68
2021/04/15 09:11:56;;;;;;;4.53;3.52;;;;;;;1.66;81.36;100725.14;2060749;83;21703;-67
2021/04/15 09:15:50;;;;;;;3.95;3.08;;;;;;;1.64;81.28;100734.85;2048179;83;21146;-67
2021/04/15 09:19:10;;;;;;;3.22;2.67;;;;;;;1.60;81.42;100737.27;2084238;83;21189;-71
2021/04/15 09:22:32;;;;;;;3.17;2.77;;;;;;;1.65;81.94;100727.36;2083708;83;21168;-75
2021/04/15 09:26:03;;;;;;;3.50;2.70;;;;;;;1.66;81.59;100735.61;2087135;83;21196;-69
2021/04/15 09:29:18;;;;;;;4.92;3.40;;;;;;;1.65;81.79;100724.75;2052274;85;21161;-68
2021/04/15 09:32:42;;;;;;;5.22;3.52;;;;;;;1.64;81.78;100732.23;2090670;83;21125;-68
2021/04/15 09:36:08;;;;;;;6.08;3.12;;;;;;;1.63;81.68;100737.08;2081905;83;21170;-71
2021/04/15 09:39:56;;;;;;;4.22;3.00;;;;;;;1.62;81.76;100727.55;2061192;83;21160;-72
2021/04/15 09:43:09;;;;;;;3.90;3.12;;;;;;;1.67;81.79;100733.34;2085741;83;21129;-67
2021/04/15 09:46:31;;;;;;;5.30;3.60;;;;;;;1.65;81.78;100726.05;2080727;83;21691;-70
2021/04/15 09:49:55;;;;;;;5.75;3.33;;;;;;;1.62;82.02;100726.25;2048083;84;21688;-70
2021/04/15 09:53:35;;;;;;;5.37;3.52;;;;;;;1.62;81.96;100722.80;2079605;83;21178;-70
2021/04/15 09:57:14;;;;;;;5.43;3.20;;;;;;;1.65;81.97;100720.83;2116782;82;21093;-71
2021/04/15 10:00:30;;;;;;;4.28;2.83;;;;;;;1.61;82.09;100723.74;2128012;82;21630;-71
2021/04/15 10:04:04;;;;;;;4.62;2.87;;;;;;;1.68;82.29;100719.33;2131520;81;21185;-73
2021/04/15 10:07:12;;;;;;;3.65;2.92;;;;;;;1.74;82.23;100718.94;2119879;81;21554;-70
2021/04/15 10:10:34;;;;;;;6.35;3.30;;;;;;;1.76;82.24;100708.39;2120434;82;21188;-70
2021/04/15 10:14:03;;;;;;;4.00;3.08;;;;;;;1.77;82.15;100708.31;2119945;82;21105;-70
2021/04/15 10:17:37;;;;;;;5.60;3.58;;;;;;;1.83;82.30;100706.22;2112517;82;21140;-70
2021/04/15 10:21:15;;;;;;;4.95;3.80;;;;;;;1.87;82.25;100709.03;2112379;82;21135;-70
2021/04/15 10:24:34;;;;;;;6.47;4.05;;;;;;;1.92;82.25;100709.59;2108909;82;21153;-71
2021/04/15 10:27:58;;;;;;;4.40;3.00;;;;;;;1.97;82.25;100699.20;2112431;81;21537;-69
2021/04/15 10:31:11;;;;;;;5.35;3.00;;;;;;;2.03;82.04;100709.75;2131131;81;21504;-70
2021/04/15 10:34:45;;;;;;;4.92;3.52;;;;;;;1.99;82.18;100705.16;2127227;81;21161;-69
2021/04/15 10:38:33;;;;;;;4.00;3.05;;;;;;;1.99;82.14;100706.46;2129021;81;21200;-70
2021/04/15 10:42:13;;;;;;;4.12;3.27;;;;;;;1.96;82.01;100711.06;2139371;81;21093;-69
2021/04/15 10:45:53;;;;;;;4.50;2.47;;;;;;;1.90;82.00;100700.98;2137289;81;21532;-70
2021/04/15 10:49:27;;;;;;;3.15;2.80;;;;;;;1.93;82.30;100699.48;2134818;81;21180;-69
2021/04/15 10:52:46;;;;;;;6.37;3.47;;;;;;;1.92;82.17;100694.72;2136577;81;21133;-67
2021/04/15 10:55:53;;;;;;;4.83;3.05;;;;;;;1.96;82.43;100688.81;2139218;81;21581;-68
2021/04/15 10:59:09;;;;;;;4.78;3.10;;;;;;;2.01;82.54;100685.44;2128231;81;21141;-68
2021/04/15 11:02:49;;;;;;;4.65;2.95;;;;;;;2.05;82.11;100696.55;2136032;81;21124;-71
2021/04/15 11:05:56;;;;;;;8.33;4.35;;;;;;;2.02;82.09;100681.39;2136421;81;21639;-67
2021/04/15 11:09:20;;;;;;;7.00;4.37;;;;;;;2.08;82.34;100672.31;2128559;81;22292;-67
2021/04/15 11:12:31;;;;;;;5.17;3.52;;;;;;;2.08;81.99;100689.33;2137199;81;21203;-69
2021/04/15 11:15:47;;;;;;;;;;;;;;;2.09;82.16;100687.58;2144179;80;21282;-69
2021/04/15 11:18:50;;;;;;;5.53;3.87;;;;;;;2.06;82.26;100680.75;2133759;81;20252;-69
2021/04/15 11:21:54;;;;;;;4.65;2.85;;;;;;;2.09;82.21;100691.50;2134894;81;21620;-74
2021/04/15 11:25:24;;;;;;;5.97;3.58;;;;;;;2.06;82.27;100683.84;2143311;81;21128;-70
2021/04/15 11:28:32;;;;;;;5.15;3.85;;;;;;;2.07;82.29;100687.66;2101674;81;21142;-70
2021/04/15 11:31:40;;;;;;;5.20;3.37;;;;;;;2.11;82.64;100683.92;2076752;84;21164;-70
2021/04/15 11:34:41;;;;;;;8.03;4.00;;;;;;;2.10;82.13;100682.22;2078998;84;21169;-76
2021/04/15 11:37:47;;;;;;;3.87;2.90;;;;;;;2.08;82.30;100684.56;2101881;82;21176;-72
2021/04/15 11:40:52;;;;;;;8.45;4.08;;;;;;;2.07;82.30;100678.97;2105837;82;21192;-73
2021/04/15 11:44:10;;;;;;;5.87;4.35;;;;;;;2.10;82.23;100670.92;2117467;82;21168;-74
2021/04/15 11:47:25;;;;;;;4.72;3.67;;;;;;;2.14;82.48;100676.31;2119063;82;21201;-72
2021/04/15 11:50:27;;;;;;;5.65;3.67;;;;;;;2.18;82.38;100676.02;2116439;82;21161;-73
2021/04/15 11:53:44;;;;;;;4.58;3.30;;;;;;;2.18;82.27;100675.19;2116551;81;21716;-73
2021/04/15 11:56:46;;;;;;;5.50;3.10;;;;;;;2.23;82.39;100680.50;2114219;82;21173;-73
2021/04/15 12:00:02;;;;;;;7.65;3.33;;;;;;;2.28;82.42;100670.19;2120568;82;21208;-73
2021/04/15 12:03:16;;;;;;;3.80;2.60;;;;;;;2.30;82.28;100672.23;2122947;82;21314;-72
2021/04/15 12:06:18;;;;;;;7.65;3.70;;;;;;;2.35;82.23;100664.93;2122471;82;21698;-70
2021/04/15 12:09:25;;;;;;;5.72;3.20;;;;;;;2.34;82.28;100665.41;2093682;82;21173;-72
2021/04/15 12:12:40;;;;;;;4.65;2.98;;;;;;;2.33;82.46;100672.88;2103071;82;21180;-71
2021/04/15 12:15:59;;;;;;;4.97;2.90;;;;;;;2.33;82.20;100670.25;2095293;82;21150;-75
2021/04/15 12:19:15;;;;;;;7.17;3.42;;;;;;;2.36;82.37;100670.52;2025561;83;21175;-71
2021/04/15 12:22:38;;;;;;;5.28;3.62;;;;;;;2.36;82.36;100661.36;2069070;83;21121;-70
2021/04/15 12:25:54;;;;;;;7.40;4.75;;;;;;;2.35;82.35;100667.55;2077768;83;21094;-73
2021/04/15 12:29:04;;;;;;;8.28;4.60;;;;;;;2.34;82.40;100665.88;2118183;82;21191;-72
2021/04/15 12:32:19;;;;;;;5.15;3.58;;;;;;;2.39;82.61;100663.33;2114519;82;21566;-71
2021/04/15 12:35:47;;;;;;;4.72;3.42;;;;;;;2.42;82.40;100657.89;2120615;82;21186;-70
2021/04/15 12:38:58;;;;;;;6.53;4.10;;;;;;;2.41;82.43;100664.05;2131906;81;21584;-71
2021/04/15 12:42:01;;;;;;;6.50;4.08;;;;;;;2.40;82.37;100665.47;2126497;81;21628;-72
2021/04/15 12:45:06;;;;;;;5.20;3.45;;;;;;;2.47;82.88;100661.49;2138681;81;21176;-70
2021/04/15 12:48:12;;;;;;;6.55;3.77;;;;;;;2.47;82.59;100655.77;2132592;81;21168;-73
2021/04/15 12:51:22;;;;;;;6.25;3.52;;;;;;;2.52;82.84;100659.41;2137200;81;21714;-71
2021/04/15 12:54:30;;;;;;;4.65;3.00;;;;;;;2.56;82.50;100663.97;2138665;81;21248;-72
2021/04/15 12:57:32;;;;;;;5.03;2.72;;;;;;;2.60;82.65;100650.58;2143347;81;21109;-69
2021/04/15 13:00:39;;;;;;;5.42;3.70;;;;;;;2.62;82.34;100650.01;2133572;80;21069;-70
2021/04/15 13:03:46;;;;;;;4.30;2.90;;;;;;;2.64;82.56;100649.89;2127566;81;21169;-71
2021/04/15 13:07:06;;;;;;;5.22;3.35;;;;;;;2.63;82.64;100652.98;2133317;81;21142;-71
2021/04/15 13:10:30;;;;;;;7.42;3.52;;;;;;;2.67;82.75;100650.52;2127472;81;21764;-70
2021/04/15 13:13:43;;;;;;;3.87;2.70;;;;;;;2.77;82.92;100645.51;2104444;81;21176;-72
2021/04/15 13:16:51;;;;;;;4.70;2.90;;;;;;;2.79;82.74;100656.73;2130831;80;21188;-70
2021/04/15 13:19:58;;;;;;;6.40;3.90;;;;;;;2.83;82.57;100649.50;2137784;81;21121;-70
2021/04/15 13:23:14;;;;;;;5.00;3.02;;;;;;;2.86;82.47;100646.66;2140811;81;21233;-70
2021/04/15 13:26:21;;;;;;;5.03;3.00;;;;;;;2.84;82.47;100655.09;2142974;81;21202;-71
2021/04/15 13:29:24;;;;;;;5.40;2.85;;;;;;;2.83;82.43;100648.19;2139654;81;21170;-71
2021/04/15 13:32:30;;;;;;;3.35;3.05;;;;;;;2.77;82.30;100651.23;2132291;82;21172;-70
2021/04/15 13:36:04;;;;;;;4.42;2.90;;;;;;;2.71;82.28;100647.23;2127806;82;22378;-69
2021/04/15 13:39:27;;;;;;;5.03;2.98;;;;;;;2.70;82.67;100646.84;2122463;82;21157;-70
2021/04/15 13:42:35;;;;;;;5.62;2.55;;;;;;;2.73;82.78;100643.19;2131151;82;21562;-71
2021/04/15 13:45:41;;;;;;;3.02;2.30;;;;;;;2.75;82.61;100648.70;2131350;82;21578;-71
2021/04/15 13:49:02;;;;;;;4.40;2.62;;;;;;;2.79;82.52;100651.94;2117291;82;21189;-71
2021/04/15 13:52:15;;;;;;;5.10;2.42;;;;;;;2.92;83.06;100643.14;2123655;82;21226;-72
2021/04/15 13:55:49;;;;;;;4.30;2.75;;;;;;;2.93;82.42;100647.94;2126837;82;21153;-70
2021/04/15 13:58:56;;;;;;;14.40;7.42;;;;;;;2.93;82.48;100646.63;2122299;82;21166;-73
2021/04/15 14:02:17;;;;;;;6.90;4.58;;;;;;;2.90;82.02;100654.67;2122069;82;21982;-72
2021/04/15 14:05:36;;;;;;;9.08;4.42;;;;;;;2.94;82.44;100653.53;2129639;82;21161;-71
2021/04/15 14:09:04;;;;;;;5.28;3.20;;;;;;;2.99;82.29;100654.55;2137597;82;21164;-71
2021/04/15 14:12:51;;;;;;;8.83;4.05;;;;;;;2.99;82.29;100641.44;2140882;82;21070;-72
2021/04/15 14:15:56;;;;;;;4.70;3.55;;;;;;;2.99;82.14;100647.52;2130818;82;21196;-73
2021/04/15 14:19:14;;;;;;;4.83;2.83;;;;;;;2.96;82.31;100645.11;2135438;82;21112;-72
2021/04/15 14:22:21;;;;;;;5.17;3.40;;;;;;;2.91;82.02;100652.44;2128228;82;21558;-71
2021/04/15 14:25:34;;;;;;;12.43;6.62;;;;;;;2.90;82.09;100655.98;2132936;81;22219;-72
2021/04/15 14:28:37;;;;;;;6.53;3.45;;;;;;;2.92;82.11;100651.48;2129226;82;21204;-72
2021/04/15 14:31:49;;;;;;;6.08;3.37;;;;;;;2.87;82.04;100654.44;2118931;82;21145;-72
2021/04/15 14:35:13;;;;;;;5.47;3.33;;;;;;;2.84;82.04;100648.55;2116893;82;21160;-71
2021/04/15 14:38:32;;;;;;;5.92;3.15;;;;;;;2.71;81.64;100646.41;2115144;82;21208;-71
2021/04/15 14:41:34;;;;;;;5.47;3.40;;;;;;;2.67;81.91;100648.37;2114763;82;21125;-72
2021/04/15 14:44:38;;;;;;;7.85;4.22;;;;;;;2.68;82.14;100656.63;2113851;82;21265;-74
2021/04/15 14:47:50;;;;;;;5.05;3.42;;;;;;;2.67;82.08;100650.52;2109413;82;21216;-72
2021/04/15 14:51:02;;;;;;;5.33;3.55;;;;;;;2.62;82.03;100643.45;2118698;82;21637;-71
2021/04/15 14:54:21;;;;;;;5.67;3.75;;;;;;;2.61;81.98;100651.41;2124404;82;21156;-71
2021/04/15 14:57:27;;;;;;;3.77;2.85;;;;;;;2.55;82.13;100646.58;2114790;82;21156;-72
2021/04/15 15:00:43;;;;;;;6.03;4.00;;;;;;;2.51;82.19;100651.67;2093082;81;21184;-72
2021/04/15 15:03:44;;;;;;;3.90;2.90;;;;;;;2.52;82.26;100652.03;2114184;82;21192;-72
2021/04/15 15:06:52;;;;;;;5.12;3.20;;;;;;;2.54;82.58;100645.75;2121697;82;21145;-72
2021/04/15 15:09:53;;;;;;;5.72;3.17;;;;;;;2.55;82.32;100657.89;2117640;82;21196;-72
2021/04/15 15:12:57;;;;;;;5.08;3.10;;;;;;;2.51;82.14;100644.65;2115279;82;21168;-72
2021/04/15 15:16:00;;;;;;;4.92;3.12;;;;;;;2.47;82.18;100654.47;2123821;82;21113;-72
2021/04/15 15:19:02;;;;;;;5.22;3.40;;;;;;;2.45;82.26;100651.61;2136647;82;21120;-72
2021/04/15 15:22:42;;;;;;;5.53;3.30;;;;;;;2.47;82.27;100644.46;2121221;81;21146;-72
2021/04/15 15:25:48;;;;;;;7.60;3.25;;;;;;;2.48;82.36;100644.85;2114739;82;21557;-73